ルレオ の空港の天気 - METARとTAF

Lulea / Kallax ( ESPA / LLA ) - スウェーデン ルレオ
飛行場実況気象(Metar)
観測時間10/19 20:20 CEST (10/19 18:20 UTC)
風向・風速北西 1m/s
視程10km以上
天気現象
なし
気温3℃
湿度81%
気圧1014hPa
METARESPA 191820Z 32002KT CAVOK 03/00 Q1014
過去の天気等 Google飛行場航空写真 Wunderground天気予報

過去48時間のMETAR

飛行場予報(TAF)
発表時間: 10/19 19:30 CEST (10/19 17:30 UTC)
予報対象時間: 19日20時 CEST ~ 20日1時 CEST
風向・風速西北西 2m/s
視程10km以上
なし
TAF ESPA 191730Z 1918/1923 30004KT CAVOK